sensor_id;sensor_type;location;lat;lon;timestamp;P1;durP1;ratioP1;P2;durP2;ratioP2
26082;SDS011;13848;49.018;12.078;2022-08-11T00:02:29;3.70;;;2.28;;
26082;SDS011;13848;49.018;12.078;2022-08-11T00:05:00;2.53;;;1.98;;
26082;SDS011;13848;49.018;12.078;2022-08-11T00:07:30;3.53;;;2.17;;
26082;SDS011;13848;49.018;12.078;2022-08-11T00:09:56;3.45;;;1.80;;
26082;SDS011;13848;49.018;12.078;2022-08-11T00:12:24;4.75;;;2.28;;
26082;SDS011;13848;49.018;12.078;2022-08-11T00:14:55;4.10;;;2.22;;
26082;SDS011;13848;49.018;12.078;2022-08-11T00:17:26;2.95;;;1.95;;
26082;SDS011;13848;49.018;12.078;2022-08-11T00:19:53;3.00;;;2.10;;
26082;SDS011;13848;49.018;12.078;2022-08-11T00:22:26;3.63;;;2.20;;
26082;SDS011;13848;49.018;12.078;2022-08-11T00:24:56;3.53;;;2.10;;
26082;SDS011;13848;49.018;12.078;2022-08-11T00:27:30;4.28;;;2.00;;
26082;SDS011;13848;49.018;12.078;2022-08-11T00:29:56;6.07;;;2.22;;
26082;SDS011;13848;49.018;12.078;2022-08-11T00:32:22;5.45;;;2.10;;
26082;SDS011;13848;49.018;12.078;2022-08-11T00:34:48;6.07;;;2.22;;
26082;SDS011;13848;49.018;12.078;2022-08-11T00:37:17;2.70;;;1.92;;
26082;SDS011;13848;49.018;12.078;2022-08-11T00:39:45;3.17;;;2.28;;
26082;SDS011;13848;49.018;12.078;2022-08-11T00:42:17;3.17;;;2.05;;
26082;SDS011;13848;49.018;12.078;2022-08-11T00:45:00;5.03;;;2.35;;
26082;SDS011;13848;49.018;12.078;2022-08-11T00:47:38;3.78;;;2.22;;
26082;SDS011;13848;49.018;12.078;2022-08-11T00:50:15;5.22;;;2.20;;
26082;SDS011;13848;49.018;12.078;2022-08-11T00:52:58;2.40;;;2.20;;
26082;SDS011;13848;49.018;12.078;2022-08-11T00:55:48;2.80;;;2.05;;
26082;SDS011;13848;49.018;12.078;2022-08-11T01:01:48;5.35;;;2.42;;
26082;SDS011;13848;49.018;12.078;2022-08-11T01:04:31;4.07;;;1.73;;
26082;SDS011;13848;49.018;12.078;2022-08-11T01:07:31;4.57;;;2.20;;
26082;SDS011;13848;49.018;12.078;2022-08-11T01:10:33;3.80;;;2.10;;
26082;SDS011;13848;49.018;12.078;2022-08-11T01:13:33;5.00;;;2.00;;
26082;SDS011;13848;49.018;12.078;2022-08-11T01:16:22;3.47;;;2.00;;
26082;SDS011;13848;49.018;12.078;2022-08-11T01:19:27;5.93;;;2.25;;
26082;SDS011;13848;49.018;12.078;2022-08-11T01:31:55;2.20;;;1.88;;
26082;SDS011;13848;49.018;12.078;2022-08-11T01:37:59;3.58;;;2.17;;
26082;SDS011;13848;49.018;12.078;2022-08-11T01:40:51;2.92;;;2.20;;
26082;SDS011;13848;49.018;12.078;2022-08-11T01:43:45;4.10;;;2.58;;
26082;SDS011;13848;49.018;12.078;2022-08-11T01:46:42;3.25;;;2.15;;
26082;SDS011;13848;49.018;12.078;2022-08-11T01:49:14;2.70;;;2.25;;
26082;SDS011;13848;49.018;12.078;2022-08-11T01:51:52;4.03;;;1.92;;
26082;SDS011;13848;49.018;12.078;2022-08-11T01:54:35;4.28;;;2.30;;
26082;SDS011;13848;49.018;12.078;2022-08-11T01:57:09;3.88;;;2.47;;
26082;SDS011;13848;49.018;12.078;2022-08-11T01:59:45;2.38;;;2.17;;
26082;SDS011;13848;49.018;12.078;2022-08-11T02:02:21;3.03;;;2.20;;
26082;SDS011;13848;49.018;12.078;2022-08-11T02:04:55;5.45;;;2.53;;
26082;SDS011;13848;49.018;12.078;2022-08-11T02:07:29;2.88;;;2.13;;
26082;SDS011;13848;49.018;12.078;2022-08-11T02:10:13;3.65;;;2.15;;
26082;SDS011;13848;49.018;12.078;2022-08-11T02:12:46;5.28;;;2.28;;
26082;SDS011;13848;49.018;12.078;2022-08-11T02:15:19;2.88;;;2.17;;
26082;SDS011;13848;49.018;12.078;2022-08-11T02:17:55;4.53;;;2.13;;
26082;SDS011;13848;49.018;12.078;2022-08-11T02:20:29;6.32;;;2.55;;
26082;SDS011;13848;49.018;12.078;2022-08-11T02:23:00;4.20;;;2.50;;
26082;SDS011;13848;49.018;12.078;2022-08-11T02:25:30;2.72;;;2.08;;
26082;SDS011;13848;49.018;12.078;2022-08-11T02:28:03;2.65;;;2.15;;
26082;SDS011;13848;49.018;12.078;2022-08-11T02:30:36;4.53;;;2.15;;
26082;SDS011;13848;49.018;12.078;2022-08-11T02:33:11;3.42;;;2.10;;
26082;SDS011;13848;49.018;12.078;2022-08-11T02:35:44;5.13;;;2.35;;
26082;SDS011;13848;49.018;12.078;2022-08-11T02:40:46;3.30;;;2.33;;
26082;SDS011;13848;49.018;12.078;2022-08-11T02:43:19;4.75;;;2.50;;
26082;SDS011;13848;49.018;12.078;2022-08-11T02:45:53;5.40;;;2.30;;
26082;SDS011;13848;49.018;12.078;2022-08-11T02:48:35;2.63;;;2.05;;
26082;SDS011;13848;49.018;12.078;2022-08-11T02:51:13;3.65;;;2.00;;
26082;SDS011;13848;49.018;12.078;2022-08-11T02:53:46;4.05;;;2.55;;
26082;SDS011;13848;49.018;12.078;2022-08-11T02:56:21;2.13;;;1.92;;
26082;SDS011;13848;49.018;12.078;2022-08-11T02:59:01;3.05;;;2.13;;
26082;SDS011;13848;49.018;12.078;2022-08-11T03:01:34;2.58;;;2.10;;
26082;SDS011;13848;49.018;12.078;2022-08-11T03:04:09;3.67;;;2.40;;
26082;SDS011;13848;49.018;12.078;2022-08-11T03:06:48;5.97;;;2.33;;
26082;SDS011;13848;49.018;12.078;2022-08-11T03:09:18;2.47;;;2.15;;
26082;SDS011;13848;49.018;12.078;2022-08-11T03:11:51;4.38;;;2.47;;
26082;SDS011;13848;49.018;12.078;2022-08-11T03:14:28;5.90;;;2.17;;
26082;SDS011;13848;49.018;12.078;2022-08-11T03:17:03;3.28;;;1.92;;
26082;SDS011;13848;49.018;12.078;2022-08-11T03:19:44;4.57;;;2.38;;
26082;SDS011;13848;49.018;12.078;2022-08-11T03:22:16;5.50;;;2.22;;
26082;SDS011;13848;49.018;12.078;2022-08-11T03:24:52;2.60;;;2.22;;
26082;SDS011;13848;49.018;12.078;2022-08-11T03:27:32;3.28;;;2.30;;
26082;SDS011;13848;49.018;12.078;2022-08-11T03:30:09;3.30;;;2.42;;
26082;SDS011;13848;49.018;12.078;2022-08-11T03:32:41;2.83;;;2.13;;
26082;SDS011;13848;49.018;12.078;2022-08-11T03:35:16;4.18;;;2.42;;
26082;SDS011;13848;49.018;12.078;2022-08-11T03:37:45;3.30;;;2.85;;
26082;SDS011;13848;49.018;12.078;2022-08-11T03:40:19;4.22;;;2.50;;
26082;SDS011;13848;49.018;12.078;2022-08-11T03:43:01;5.30;;;2.50;;
26082;SDS011;13848;49.018;12.078;2022-08-11T03:45:41;3.05;;;2.38;;
26082;SDS011;13848;49.018;12.078;2022-08-11T03:50:54;6.10;;;2.38;;
26082;SDS011;13848;49.018;12.078;2022-08-11T03:53:47;6.07;;;2.40;;
26082;SDS011;13848;49.018;12.078;2022-08-11T03:59:42;5.18;;;2.60;;
26082;SDS011;13848;49.018;12.078;2022-08-11T04:02:26;4.80;;;2.70;;
26082;SDS011;13848;49.018;12.078;2022-08-11T04:05:33;3.10;;;2.40;;
26082;SDS011;13848;49.018;12.078;2022-08-11T04:08:36;4.05;;;2.30;;
26082;SDS011;13848;49.018;12.078;2022-08-11T04:11:44;3.53;;;2.25;;
26082;SDS011;13848;49.018;12.078;2022-08-11T04:14:43;5.28;;;2.50;;
26082;SDS011;13848;49.018;12.078;2022-08-11T04:20:39;4.75;;;2.60;;
26082;SDS011;13848;49.018;12.078;2022-08-11T04:29:17;4.82;;;2.80;;
26082;SDS011;13848;49.018;12.078;2022-08-11T04:32:03;3.28;;;2.30;;
26082;SDS011;13848;49.018;12.078;2022-08-11T04:34:50;5.13;;;2.45;;
26082;SDS011;13848;49.018;12.078;2022-08-11T04:46:52;4.63;;;2.38;;
26082;SDS011;13848;49.018;12.078;2022-08-11T04:49:30;5.20;;;2.30;;
26082;SDS011;13848;49.018;12.078;2022-08-11T04:52:11;4.63;;;2.40;;
26082;SDS011;13848;49.018;12.078;2022-08-11T04:55:04;15.75;;;3.08;;
26082;SDS011;13848;49.018;12.078;2022-08-11T04:57:58;10.25;;;2.72;;
26082;SDS011;13848;49.018;12.078;2022-08-11T05:00:36;7.95;;;2.42;;
26082;SDS011;13848;49.018;12.078;2022-08-11T05:03:15;5.75;;;2.30;;
26082;SDS011;13848;49.018;12.078;2022-08-11T05:14:51;3.88;;;2.10;;
26082;SDS011;13848;49.018;12.078;2022-08-11T05:17:31;6.63;;;2.22;;
26082;SDS011;13848;49.018;12.078;2022-08-11T05:20:01;3.13;;;2.00;;
26082;SDS011;13848;49.018;12.078;2022-08-11T05:22:29;2.97;;;2.10;;
26082;SDS011;13848;49.018;12.078;2022-08-11T05:24:58;12.45;;;7.60;;
26082;SDS011;13848;49.018;12.078;2022-08-11T05:27:32;9.52;;;5.85;;
26082;SDS011;13848;49.018;12.078;2022-08-11T05:30:03;9.70;;;2.90;;
26082;SDS011;13848;49.018;12.078;2022-08-11T05:32:33;8.27;;;2.42;;
26082;SDS011;13848;49.018;12.078;2022-08-11T05:35:02;3.97;;;2.03;;
26082;SDS011;13848;49.018;12.078;2022-08-11T05:37:33;5.03;;;2.10;;
26082;SDS011;13848;49.018;12.078;2022-08-11T05:40:07;4.35;;;2.20;;
26082;SDS011;13848;49.018;12.078;2022-08-11T05:42:37;4.72;;;2.30;;
26082;SDS011;13848;49.018;12.078;2022-08-11T05:45:09;5.13;;;2.38;;
26082;SDS011;13848;49.018;12.078;2022-08-11T05:47:37;6.47;;;2.20;;
26082;SDS011;13848;49.018;12.078;2022-08-11T05:50:05;6.25;;;2.10;;
26082;SDS011;13848;49.018;12.078;2022-08-11T05:52:35;7.65;;;2.20;;
26082;SDS011;13848;49.018;12.078;2022-08-11T05:55:02;3.47;;;2.20;;
26082;SDS011;13848;49.018;12.078;2022-08-11T05:57:30;4.57;;;2.03;;
26082;SDS011;13848;49.018;12.078;2022-08-11T05:59:59;4.15;;;2.05;;
26082;SDS011;13848;49.018;12.078;2022-08-11T06:02:27;4.63;;;2.15;;
26082;SDS011;13848;49.018;12.078;2022-08-11T06:04:55;6.55;;;2.35;;
26082;SDS011;13848;49.018;12.078;2022-08-11T06:07:25;8.15;;;2.60;;
26082;SDS011;13848;49.018;12.078;2022-08-11T06:09:54;5.68;;;2.30;;
26082;SDS011;13848;49.018;12.078;2022-08-11T06:12:21;3.80;;;2.80;;
26082;SDS011;13848;49.018;12.078;2022-08-11T06:14:49;4.15;;;2.70;;
26082;SDS011;13848;49.018;12.078;2022-08-11T06:17:21;5.88;;;2.50;;
26082;SDS011;13848;49.018;12.078;2022-08-11T06:19:48;4.07;;;2.30;;
26082;SDS011;13848;49.018;12.078;2022-08-11T06:22:18;6.25;;;2.30;;
26082;SDS011;13848;49.018;12.078;2022-08-11T06:24:49;7.80;;;2.20;;
26082;SDS011;13848;49.018;12.078;2022-08-11T06:27:19;8.00;;;2.42;;
26082;SDS011;13848;49.018;12.078;2022-08-11T06:29:48;5.00;;;2.00;;
26082;SDS011;13848;49.018;12.078;2022-08-11T06:32:15;5.32;;;2.53;;
26082;SDS011;13848;49.018;12.078;2022-08-11T06:34:55;3.58;;;2.13;;
26082;SDS011;13848;49.018;12.078;2022-08-11T06:37:29;5.05;;;2.40;;
26082;SDS011;13848;49.018;12.078;2022-08-11T06:40:06;6.70;;;2.40;;
26082;SDS011;13848;49.018;12.078;2022-08-11T06:42:45;5.15;;;2.30;;
26082;SDS011;13848;49.018;12.078;2022-08-11T06:45:17;8.35;;;4.82;;
26082;SDS011;13848;49.018;12.078;2022-08-11T06:47:53;8.25;;;3.60;;
26082;SDS011;13848;49.018;12.078;2022-08-11T06:50:21;8.25;;;2.95;;
26082;SDS011;13848;49.018;12.078;2022-08-11T06:52:47;13.38;;;4.75;;
26082;SDS011;13848;49.018;12.078;2022-08-11T06:55:20;9.02;;;3.58;;
26082;SDS011;13848;49.018;12.078;2022-08-11T06:57:50;5.80;;;2.30;;
26082;SDS011;13848;49.018;12.078;2022-08-11T07:00:16;8.13;;;2.40;;
26082;SDS011;13848;49.018;12.078;2022-08-11T07:02:46;4.70;;;2.45;;
26082;SDS011;13848;49.018;12.078;2022-08-11T07:10:42;7.13;;;2.22;;
26082;SDS011;13848;49.018;12.078;2022-08-11T07:13:18;3.22;;;2.35;;
26082;SDS011;13848;49.018;12.078;2022-08-11T07:15:47;10.95;;;3.22;;
26082;SDS011;13848;49.018;12.078;2022-08-11T07:18:19;6.07;;;2.30;;
26082;SDS011;13848;49.018;12.078;2022-08-11T07:20:47;5.75;;;2.33;;
26082;SDS011;13848;49.018;12.078;2022-08-11T07:23:14;3.30;;;2.13;;
26082;SDS011;13848;49.018;12.078;2022-08-11T07:25:42;2.47;;;1.95;;
26082;SDS011;13848;49.018;12.078;2022-08-11T07:28:13;2.83;;;1.85;;
26082;SDS011;13848;49.018;12.078;2022-08-11T07:30:45;4.47;;;2.10;;
26082;SDS011;13848;49.018;12.078;2022-08-11T07:33:12;3.95;;;1.98;;
26082;SDS011;13848;49.018;12.078;2022-08-11T07:35:44;5.22;;;2.05;;
26082;SDS011;13848;49.018;12.078;2022-08-11T07:38:17;8.85;;;4.32;;
26082;SDS011;13848;49.018;12.078;2022-08-11T07:40:47;3.55;;;2.25;;
26082;SDS011;13848;49.018;12.078;2022-08-11T07:43:14;4.50;;;2.22;;
26082;SDS011;13848;49.018;12.078;2022-08-11T07:45:41;2.92;;;1.85;;
26082;SDS011;13848;49.018;12.078;2022-08-11T07:48:12;4.18;;;2.05;;
26082;SDS011;13848;49.018;12.078;2022-08-11T07:50:39;2.72;;;1.85;;
26082;SDS011;13848;49.018;12.078;2022-08-11T07:53:06;2.45;;;1.77;;
26082;SDS011;13848;49.018;12.078;2022-08-11T07:55:32;4.88;;;1.90;;
26082;SDS011;13848;49.018;12.078;2022-08-11T07:57:59;4.40;;;1.80;;
26082;SDS011;13848;49.018;12.078;2022-08-11T08:00:26;7.18;;;2.17;;
26082;SDS011;13848;49.018;12.078;2022-08-11T08:02:52;3.28;;;2.00;;
26082;SDS011;13848;49.018;12.078;2022-08-11T08:05:20;6.47;;;2.08;;
26082;SDS011;13848;49.018;12.078;2022-08-11T08:07:46;4.55;;;1.80;;
26082;SDS011;13848;49.018;12.078;2022-08-11T08:10:12;3.72;;;2.13;;
26082;SDS011;13848;49.018;12.078;2022-08-11T08:12:39;3.10;;;2.00;;
26082;SDS011;13848;49.018;12.078;2022-08-11T08:15:06;4.72;;;1.80;;
26082;SDS011;13848;49.018;12.078;2022-08-11T08:17:34;6.05;;;2.20;;
26082;SDS011;13848;49.018;12.078;2022-08-11T08:20:01;3.05;;;2.00;;
26082;SDS011;13848;49.018;12.078;2022-08-11T08:22:29;3.15;;;1.85;;
26082;SDS011;13848;49.018;12.078;2022-08-11T08:24:55;3.50;;;1.88;;
26082;SDS011;13848;49.018;12.078;2022-08-11T08:27:21;8.15;;;1.90;;
26082;SDS011;13848;49.018;12.078;2022-08-11T08:29:49;5.85;;;2.13;;
26082;SDS011;13848;49.018;12.078;2022-08-11T08:32:15;3.55;;;2.67;;
26082;SDS011;13848;49.018;12.078;2022-08-11T08:34:42;5.43;;;2.00;;
26082;SDS011;13848;49.018;12.078;2022-08-11T08:37:09;11.80;;;1.92;;
26082;SDS011;13848;49.018;12.078;2022-08-11T08:39:37;6.25;;;2.13;;
26082;SDS011;13848;49.018;12.078;2022-08-11T08:42:05;3.67;;;2.10;;
26082;SDS011;13848;49.018;12.078;2022-08-11T08:44:34;4.30;;;2.25;;
26082;SDS011;13848;49.018;12.078;2022-08-11T08:47:04;7.43;;;1.70;;
26082;SDS011;13848;49.018;12.078;2022-08-11T08:49:32;4.18;;;1.60;;
26082;SDS011;13848;49.018;12.078;2022-08-11T08:52:01;8.35;;;1.90;;
26082;SDS011;13848;49.018;12.078;2022-08-11T08:54:29;5.68;;;2.10;;
26082;SDS011;13848;49.018;12.078;2022-08-11T08:57:01;10.25;;;2.00;;
26082;SDS011;13848;49.018;12.078;2022-08-11T08:59:29;3.00;;;2.00;;
26082;SDS011;13848;49.018;12.078;2022-08-11T09:01:56;7.32;;;2.00;;
26082;SDS011;13848;49.018;12.078;2022-08-11T09:04:24;3.88;;;1.73;;
26082;SDS011;13848;49.018;12.078;2022-08-11T09:06:51;6.32;;;1.80;;
26082;SDS011;13848;49.018;12.078;2022-08-11T09:09:18;3.13;;;1.85;;
26082;SDS011;13848;49.018;12.078;2022-08-11T09:11:47;5.78;;;1.80;;
26082;SDS011;13848;49.018;12.078;2022-08-11T09:14:15;3.47;;;1.98;;
26082;SDS011;13848;49.018;12.078;2022-08-11T09:16:42;6.55;;;1.85;;
26082;SDS011;13848;49.018;12.078;2022-08-11T09:19:09;4.22;;;2.10;;
26082;SDS011;13848;49.018;12.078;2022-08-11T09:21:39;3.03;;;1.90;;
26082;SDS011;13848;49.018;12.078;2022-08-11T09:24:06;3.72;;;1.80;;
26082;SDS011;13848;49.018;12.078;2022-08-11T09:26:32;5.03;;;2.00;;
26082;SDS011;13848;49.018;12.078;2022-08-11T09:29:00;6.15;;;1.77;;
26082;SDS011;13848;49.018;12.078;2022-08-11T09:31:29;6.93;;;1.90;;
26082;SDS011;13848;49.018;12.078;2022-08-11T09:33:56;3.28;;;2.00;;
26082;SDS011;13848;49.018;12.078;2022-08-11T09:36:23;6.57;;;1.98;;
26082;SDS011;13848;49.018;12.078;2022-08-11T09:38:50;9.45;;;2.55;;
26082;SDS011;13848;49.018;12.078;2022-08-11T09:41:17;9.93;;;2.75;;
26082;SDS011;13848;49.018;12.078;2022-08-11T09:43:44;6.18;;;2.22;;
26082;SDS011;13848;49.018;12.078;2022-08-11T09:46:11;4.65;;;2.15;;
26082;SDS011;13848;49.018;12.078;2022-08-11T09:48:41;5.57;;;2.10;;
26082;SDS011;13848;49.018;12.078;2022-08-11T09:51:09;2.42;;;1.90;;
26082;SDS011;13848;49.018;12.078;2022-08-11T09:53:36;3.20;;;1.95;;
26082;SDS011;13848;49.018;12.078;2022-08-11T09:56:04;2.45;;;1.80;;
26082;SDS011;13848;49.018;12.078;2022-08-11T09:58:31;6.32;;;1.95;;
26082;SDS011;13848;49.018;12.078;2022-08-11T10:00:57;4.32;;;1.85;;
26082;SDS011;13848;49.018;12.078;2022-08-11T10:03:25;4.35;;;1.90;;
26082;SDS011;13848;49.018;12.078;2022-08-11T10:05:54;10.07;;;2.15;;
26082;SDS011;13848;49.018;12.078;2022-08-11T10:08:25;2.58;;;1.80;;
26082;SDS011;13848;49.018;12.078;2022-08-11T10:10:53;4.28;;;2.10;;
26082;SDS011;13848;49.018;12.078;2022-08-11T10:13:20;4.88;;;1.90;;
26082;SDS011;13848;49.018;12.078;2022-08-11T10:15:52;2.22;;;1.90;;
26082;SDS011;13848;49.018;12.078;2022-08-11T10:18:23;7.80;;;2.17;;
26082;SDS011;13848;49.018;12.078;2022-08-11T10:20:59;7.05;;;1.98;;
26082;SDS011;13848;49.018;12.078;2022-08-11T10:23:27;8.35;;;2.10;;
26082;SDS011;13848;49.018;12.078;2022-08-11T10:25:56;4.25;;;1.92;;
26082;SDS011;13848;49.018;12.078;2022-08-11T10:28:22;3.65;;;1.83;;
26082;SDS011;13848;49.018;12.078;2022-08-11T10:30:49;4.50;;;1.95;;
26082;SDS011;13848;49.018;12.078;2022-08-11T10:33:17;4.93;;;1.80;;
26082;SDS011;13848;49.018;12.078;2022-08-11T10:35:44;4.68;;;1.90;;
26082;SDS011;13848;49.018;12.078;2022-08-11T10:38:12;2.00;;;1.80;;
26082;SDS011;13848;49.018;12.078;2022-08-11T10:40:40;6.53;;;1.65;;
26082;SDS011;13848;49.018;12.078;2022-08-11T10:43:10;4.40;;;1.80;;
26082;SDS011;13848;49.018;12.078;2022-08-11T10:45:38;2.92;;;1.77;;
26082;SDS011;13848;49.018;12.078;2022-08-11T10:48:06;3.03;;;1.90;;
26082;SDS011;13848;49.018;12.078;2022-08-11T10:50:32;4.22;;;1.80;;
26082;SDS011;13848;49.018;12.078;2022-08-11T10:52:59;2.20;;;1.80;;
26082;SDS011;13848;49.018;12.078;2022-08-11T10:55:28;9.13;;;1.92;;
26082;SDS011;13848;49.018;12.078;2022-08-11T10:57:54;5.68;;;1.80;;
26082;SDS011;13848;49.018;12.078;2022-08-11T11:00:20;5.40;;;1.80;;
26082;SDS011;13848;49.018;12.078;2022-08-11T11:02:47;3.60;;;1.60;;
26082;SDS011;13848;49.018;12.078;2022-08-11T11:05:14;2.67;;;1.60;;
26082;SDS011;13848;49.018;12.078;2022-08-11T11:07:49;4.63;;;1.88;;
26082;SDS011;13848;49.018;12.078;2022-08-11T11:10:19;3.88;;;1.63;;
26082;SDS011;13848;49.018;12.078;2022-08-11T11:12:49;2.67;;;1.63;;
26082;SDS011;13848;49.018;12.078;2022-08-11T11:15:20;4.97;;;2.00;;
26082;SDS011;13848;49.018;12.078;2022-08-11T11:17:50;2.97;;;1.80;;
26082;SDS011;13848;49.018;12.078;2022-08-11T11:20:21;5.43;;;1.80;;
26082;SDS011;13848;49.018;12.078;2022-08-11T11:22:50;2.58;;;1.98;;
26082;SDS011;13848;49.018;12.078;2022-08-11T11:25:29;2.85;;;1.50;;
26082;SDS011;13848;49.018;12.078;2022-08-11T11:28:22;3.13;;;1.50;;
26082;SDS011;13848;49.018;12.078;2022-08-11T11:31:02;6.50;;;1.60;;
26082;SDS011;13848;49.018;12.078;2022-08-11T11:33:39;3.80;;;1.35;;
26082;SDS011;13848;49.018;12.078;2022-08-11T11:36:18;3.40;;;1.83;;
26082;SDS011;13848;49.018;12.078;2022-08-11T11:38:52;2.33;;;1.50;;
26082;SDS011;13848;49.018;12.078;2022-08-11T11:41:18;2.72;;;1.50;;
26082;SDS011;13848;49.018;12.078;2022-08-11T11:43:46;3.88;;;1.63;;
26082;SDS011;13848;49.018;12.078;2022-08-11T11:46:12;4.25;;;1.52;;
26082;SDS011;13848;49.018;12.078;2022-08-11T11:48:38;3.47;;;1.50;;
26082;SDS011;13848;49.018;12.078;2022-08-11T11:51:06;8.23;;;1.50;;
26082;SDS011;13848;49.018;12.078;2022-08-11T11:53:33;5.82;;;1.45;;
26082;SDS011;13848;49.018;12.078;2022-08-11T11:56:00;3.72;;;1.48;;
26082;SDS011;13848;49.018;12.078;2022-08-11T11:58:28;5.65;;;1.90;;
26082;SDS011;13848;49.018;12.078;2022-08-11T12:00:55;2.85;;;1.50;;
26082;SDS011;13848;49.018;12.078;2022-08-11T12:03:21;5.10;;;1.80;;
26082;SDS011;13848;49.018;12.078;2022-08-11T12:05:49;5.63;;;1.58;;
26082;SDS011;13848;49.018;12.078;2022-08-11T12:08:16;7.18;;;1.50;;
26082;SDS011;13848;49.018;12.078;2022-08-11T12:10:43;4.60;;;1.60;;
26082;SDS011;13848;49.018;12.078;2022-08-11T12:13:11;3.63;;;1.30;;
26082;SDS011;13848;49.018;12.078;2022-08-11T12:15:38;5.07;;;1.42;;
26082;SDS011;13848;49.018;12.078;2022-08-11T12:18:05;4.43;;;1.33;;
26082;SDS011;13848;49.018;12.078;2022-08-11T12:20:32;2.08;;;1.48;;
26082;SDS011;13848;49.018;12.078;2022-08-11T12:22:58;3.22;;;1.40;;
26082;SDS011;13848;49.018;12.078;2022-08-11T12:25:24;6.25;;;1.40;;
26082;SDS011;13848;49.018;12.078;2022-08-11T12:27:51;2.60;;;1.25;;
26082;SDS011;13848;49.018;12.078;2022-08-11T12:30:18;1.50;;;1.20;;
26082;SDS011;13848;49.018;12.078;2022-08-11T12:32:44;1.77;;;1.40;;
26082;SDS011;13848;49.018;12.078;2022-08-11T12:35:13;3.88;;;1.40;;
26082;SDS011;13848;49.018;12.078;2022-08-11T12:37:42;3.42;;;1.35;;
26082;SDS011;13848;49.018;12.078;2022-08-11T12:40:10;2.83;;;1.55;;
26082;SDS011;13848;49.018;12.078;2022-08-11T12:42:39;3.55;;;1.50;;
26082;SDS011;13848;49.018;12.078;2022-08-11T12:45:06;1.85;;;1.50;;
26082;SDS011;13848;49.018;12.078;2022-08-11T12:47:37;3.58;;;1.33;;
26082;SDS011;13848;49.018;12.078;2022-08-11T12:50:04;2.70;;;1.50;;
26082;SDS011;13848;49.018;12.078;2022-08-11T12:52:33;3.67;;;1.50;;
26082;SDS011;13848;49.018;12.078;2022-08-11T12:55:08;4.18;;;1.40;;
26082;SDS011;13848;49.018;12.078;2022-08-11T12:57:38;4.93;;;1.40;;
26082;SDS011;13848;49.018;12.078;2022-08-11T13:00:07;3.42;;;1.40;;
26082;SDS011;13848;49.018;12.078;2022-08-11T13:02:34;7.35;;;1.50;;
26082;SDS011;13848;49.018;12.078;2022-08-11T13:05:00;6.07;;;1.25;;
26082;SDS011;13848;49.018;12.078;2022-08-11T13:07:28;4.97;;;1.17;;
26082;SDS011;13848;49.018;12.078;2022-08-11T13:09:57;2.58;;;1.50;;
26082;SDS011;13848;49.018;12.078;2022-08-11T13:12:25;1.63;;;1.40;;
26082;SDS011;13848;49.018;12.078;2022-08-11T13:14:52;3.85;;;1.58;;
26082;SDS011;13848;49.018;12.078;2022-08-11T13:17:19;2.17;;;1.30;;
26082;SDS011;13848;49.018;12.078;2022-08-11T13:19:45;1.90;;;1.40;;
26082;SDS011;13848;49.018;12.078;2022-08-11T13:22:12;2.60;;;1.30;;
26082;SDS011;13848;49.018;12.078;2022-08-11T13:24:41;2.13;;;1.42;;
26082;SDS011;13848;49.018;12.078;2022-08-11T13:27:10;4.78;;;1.35;;
26082;SDS011;13848;49.018;12.078;2022-08-11T13:29:37;4.25;;;1.30;;
26082;SDS011;13848;49.018;12.078;2022-08-11T13:32:06;4.82;;;1.40;;
26082;SDS011;13848;49.018;12.078;2022-08-11T13:34:32;3.15;;;1.27;;
26082;SDS011;13848;49.018;12.078;2022-08-11T13:37:00;7.43;;;1.20;;
26082;SDS011;13848;49.018;12.078;2022-08-11T13:39:30;1.98;;;1.40;;
26082;SDS011;13848;49.018;12.078;2022-08-11T13:41:58;1.40;;;1.30;;
26082;SDS011;13848;49.018;12.078;2022-08-11T13:44:27;6.03;;;1.33;;
26082;SDS011;13848;49.018;12.078;2022-08-11T13:46:55;5.13;;;1.50;;
26082;SDS011;13848;49.018;12.078;2022-08-11T13:49:23;5.15;;;1.52;;
26082;SDS011;13848;49.018;12.078;2022-08-11T13:51:50;5.47;;;1.30;;
26082;SDS011;13848;49.018;12.078;2022-08-11T13:54:17;3.00;;;1.20;;
26082;SDS011;13848;49.018;12.078;2022-08-11T13:56:46;6.55;;;1.30;;
26082;SDS011;13848;49.018;12.078;2022-08-11T13:59:16;2.40;;;1.45;;
26082;SDS011;13848;49.018;12.078;2022-08-11T14:01:46;1.35;;;1.17;;
26082;SDS011;13848;49.018;12.078;2022-08-11T14:04:15;5.18;;;1.45;;
26082;SDS011;13848;49.018;12.078;2022-08-11T14:06:49;2.40;;;1.40;;
26082;SDS011;13848;49.018;12.078;2022-08-11T14:09:18;2.90;;;1.30;;
26082;SDS011;13848;49.018;12.078;2022-08-11T14:11:49;7.15;;;1.23;;
26082;SDS011;13848;49.018;12.078;2022-08-11T14:14:18;3.80;;;1.48;;
26082;SDS011;13848;49.018;12.078;2022-08-11T14:16:50;2.30;;;1.23;;
26082;SDS011;13848;49.018;12.078;2022-08-11T14:19:21;3.83;;;1.33;;
26082;SDS011;13848;49.018;12.078;2022-08-11T14:21:49;1.80;;;1.30;;
26082;SDS011;13848;49.018;12.078;2022-08-11T14:24:17;7.53;;;1.20;;
26082;SDS011;13848;49.018;12.078;2022-08-11T14:26:43;2.28;;;1.80;;
26082;SDS011;13848;49.018;12.078;2022-08-11T14:29:12;3.90;;;1.33;;
26082;SDS011;13848;49.018;12.078;2022-08-11T14:31:42;3.80;;;1.13;;
26082;SDS011;13848;49.018;12.078;2022-08-11T14:34:12;6.05;;;1.35;;
26082;SDS011;13848;49.018;12.078;2022-08-11T14:36:41;1.98;;;1.40;;
26082;SDS011;13848;49.018;12.078;2022-08-11T14:39:09;1.65;;;1.30;;
26082;SDS011;13848;49.018;12.078;2022-08-11T14:41:38;5.72;;;1.48;;
26082;SDS011;13848;49.018;12.078;2022-08-11T14:44:05;1.65;;;1.30;;
26082;SDS011;13848;49.018;12.078;2022-08-11T14:46:34;2.88;;;1.27;;
26082;SDS011;13848;49.018;12.078;2022-08-11T14:49:01;2.92;;;1.20;;
26082;SDS011;13848;49.018;12.078;2022-08-11T14:51:28;5.55;;;1.30;;
26082;SDS011;13848;49.018;12.078;2022-08-11T14:53:55;2.80;;;1.02;;
26082;SDS011;13848;49.018;12.078;2022-08-11T14:56:22;3.78;;;1.23;;
26082;SDS011;13848;49.018;12.078;2022-08-11T14:58:48;4.80;;;1.38;;
26082;SDS011;13848;49.018;12.078;2022-08-11T15:01:17;2.75;;;1.30;;
26082;SDS011;13848;49.018;12.078;2022-08-11T15:03:44;6.13;;;1.40;;
26082;SDS011;13848;49.018;12.078;2022-08-11T15:06:10;3.17;;;1.50;;
26082;SDS011;13848;49.018;12.078;2022-08-11T15:08:37;7.93;;;1.40;;
26082;SDS011;13848;49.018;12.078;2022-08-11T15:11:04;8.93;;;1.52;;
26082;SDS011;13848;49.018;12.078;2022-08-11T15:13:30;1.40;;;1.30;;
26082;SDS011;13848;49.018;12.078;2022-08-11T15:15:56;5.00;;;1.65;;
26082;SDS011;13848;49.018;12.078;2022-08-11T15:18:22;4.70;;;1.70;;
26082;SDS011;13848;49.018;12.078;2022-08-11T15:20:49;3.30;;;1.40;;
26082;SDS011;13848;49.018;12.078;2022-08-11T15:23:15;7.32;;;1.80;;
26082;SDS011;13848;49.018;12.078;2022-08-11T15:25:44;1.77;;;1.33;;
26082;SDS011;13848;49.018;12.078;2022-08-11T15:28:14;3.22;;;1.67;;
26082;SDS011;13848;49.018;12.078;2022-08-11T15:30:43;4.43;;;1.45;;
26082;SDS011;13848;49.018;12.078;2022-08-11T15:33:11;2.35;;;1.27;;
26082;SDS011;13848;49.018;12.078;2022-08-11T15:35:41;4.32;;;1.38;;
26082;SDS011;13848;49.018;12.078;2022-08-11T15:38:07;3.63;;;1.52;;
26082;SDS011;13848;49.018;12.078;2022-08-11T15:40:37;3.67;;;1.50;;
26082;SDS011;13848;49.018;12.078;2022-08-11T15:43:08;3.65;;;1.50;;
26082;SDS011;13848;49.018;12.078;2022-08-11T15:45:38;5.07;;;1.25;;
26082;SDS011;13848;49.018;12.078;2022-08-11T15:48:07;7.45;;;1.40;;
26082;SDS011;13848;49.018;12.078;2022-08-11T15:50:37;5.00;;;1.60;;
26082;SDS011;13848;49.018;12.078;2022-08-11T15:53:08;7.53;;;1.80;;
26082;SDS011;13848;49.018;12.078;2022-08-11T15:55:40;4.47;;;1.85;;
26082;SDS011;13848;49.018;12.078;2022-08-11T15:58:09;5.25;;;1.65;;